Time,TemperatureF,DewpointF,PressureIn,WindDirection,WindDirectionDegrees,WindSpeedMPH,WindSpeedGustMPH,Humidity,HourlyPrecipIn,Conditions,Clouds,dailyrainin,SoftwareType,DateUTC
2013-04-15 00:02:00,55.0,35.0,29.75,NW,317,5.0,11.0,46,0.00,,,0.02,,2013-04-15 05:02:00,
2013-04-15 00:12:00,55.0,35.0,29.75,NW,317,5.0,11.0,46,0.00,,,0.02,,2013-04-15 05:12:00,
2013-04-15 00:23:00,55.0,35.0,29.76,West,276,3.0,11.0,46,0.00,,,0.02,,2013-04-15 05:23:00,
2013-04-15 00:33:00,54.0,34.0,29.79,WNW,291,1.0,7.0,47,0.00,,,0.02,,2013-04-15 05:33:00,
2013-04-15 00:42:00,54.0,34.0,29.79,WNW,291,1.0,7.0,47,0.00,,,0.02,,2013-04-15 05:42:00,
2013-04-15 00:52:00,53.0,34.0,29.80,NW,310,1.0,6.0,48,0.00,,,0.02,,2013-04-15 05:52:00,
2013-04-15 01:02:00,53.0,34.0,29.81,NW,310,0.0,9.0,48,0.00,,,0.02,,2013-04-15 06:02:00,
2013-04-15 01:12:00,53.0,34.0,29.81,NW,310,0.0,9.0,48,0.00,,,0.02,,2013-04-15 06:12:00,
2013-04-15 01:22:00,53.0,33.0,29.81,NW,306,1.0,7.0,46,0.00,,,0.02,,2013-04-15 06:22:00,
2013-04-15 01:33:00,52.0,32.0,29.80,NW,317,0.0,5.0,46,0.00,,,0.02,,2013-04-15 06:33:00,
2013-04-15 01:42:00,52.0,32.0,29.80,NW,317,0.0,5.0,46,0.00,,,0.02,,2013-04-15 06:42:00,
2013-04-15 01:52:00,52.0,33.0,29.80,NW,323,0.0,6.0,48,0.00,,,0.02,,2013-04-15 06:52:00,
2013-04-15 02:02:00,52.0,33.0,29.80,NW,321,0.0,0.0,48,0.00,,,0.02,,2013-04-15 07:02:00,
2013-04-15 02:41:00,51.0,34.0,29.80,NW,321,0.0,1.0,51,0.00,,,0.02,,2013-04-15 07:41:00,
2013-04-15 02:43:00,51.0,33.0,29.80,NW,321,0.0,5.0,49,0.00,,,0.02,,2013-04-15 07:43:00,
2013-04-15 02:52:00,51.0,32.0,29.79,NW,321,0.0,6.0,48,0.00,,,0.02,,2013-04-15 07:52:00,
2013-04-15 03:02:00,51.0,31.0,29.82,NW,321,0.0,4.0,46,0.00,,,0.02,,2013-04-15 08:02:00,
2013-04-15 03:13:00,51.0,31.0,29.82,NW,321,0.0,4.0,46,0.00,,,0.02,,2013-04-15 08:13:00,
2013-04-15 03:22:00,51.0,31.0,29.83,NW,321,0.0,1.0,47,0.00,,,0.02,,2013-04-15 08:22:00,
2013-04-15 03:33:00,51.0,31.0,29.84,NW,321,0.0,0.0,46,0.00,,,0.02,,2013-04-15 08:33:00,
2013-04-15 03:42:00,51.0,31.0,29.84,NW,321,0.0,0.0,46,0.00,,,0.02,,2013-04-15 08:42:00,
2013-04-15 03:52:00,51.0,31.0,29.82,NW,321,0.0,0.0,47,0.00,,,0.02,,2013-04-15 08:52:00,
2013-04-15 04:03:00,50.0,31.0,29.84,NW,321,0.0,0.0,48,0.00,,,0.02,,2013-04-15 09:03:00,
2013-04-15 04:12:00,50.0,31.0,29.84,NW,321,0.0,0.0,48,0.00,,,0.02,,2013-04-15 09:12:00,
2013-04-15 04:23:00,49.0,35.0,29.83,NW,321,0.0,0.0,58,0.01,,,0.03,,2013-04-15 09:23:00,
2013-04-15 04:32:00,47.0,37.0,29.84,NW,321,0.0,0.0,67,0.02,,,0.04,,2013-04-15 09:32:00,
2013-04-15 04:43:00,47.0,37.0,29.84,NW,321,0.0,0.0,67,0.02,,,0.04,,2013-04-15 09:43:00,
2013-04-15 04:53:00,46.0,37.0,29.86,NW,321,0.0,1.0,72,0.02,,,0.04,,2013-04-15 09:53:00,
2013-04-15 05:02:00,45.0,38.0,29.85,NW,321,0.0,0.0,75,0.02,,,0.04,,2013-04-15 10:02:00,
2013-04-15 05:13:00,45.0,38.0,29.85,NW,321,0.0,0.0,75,0.02,,,0.04,,2013-04-15 10:13:00,
2013-04-15 05:23:00,45.0,38.0,29.86,NW,321,0.0,1.0,77,0.01,,,0.04,,2013-04-15 10:23:00,
2013-04-15 05:33:00,45.0,40.0,29.83,NW,321,0.0,1.0,82,0.02,,,0.06,,2013-04-15 10:33:00,
2013-04-15 05:42:00,45.0,40.0,29.83,NW,321,0.0,1.0,82,0.02,,,0.06,,2013-04-15 10:42:00,
2013-04-15 05:52:00,44.0,39.0,29.88,NW,321,0.0,4.0,84,0.04,,,0.08,,2013-04-15 10:52:00,
2013-04-15 06:03:00,43.0,38.0,29.88,NW,316,0.0,2.0,84,0.09,,,0.13,,2013-04-15 11:03:00,
2013-04-15 06:12:00,43.0,38.0,29.88,NW,316,0.0,2.0,84,0.09,,,0.13,,2013-04-15 11:12:00,
2013-04-15 06:22:00,42.0,38.0,29.83,NW,315,0.0,3.0,85,0.14,,,0.18,,2013-04-15 11:22:00,
2013-04-15 06:32:00,41.0,37.0,29.85,SE,125,0.0,4.0,87,0.12,,,0.18,,2013-04-15 11:32:00,
2013-04-15 06:43:00,41.0,37.0,29.85,SE,125,0.0,4.0,87,0.12,,,0.18,,2013-04-15 11:43:00,
2013-04-15 06:53:00,42.0,39.0,29.86,SE,126,0.0,2.0,88,0.09,,,0.18,,2013-04-15 11:53:00,
2013-04-15 07:04:00,42.0,39.0,29.85,SE,126,0.0,2.0,88,0.05,,,0.18,,2013-04-15 12:04:00,
2013-04-15 07:14:00,42.0,39.0,29.85,SE,126,0.0,2.0,88,0.05,,,0.18,,2013-04-15 12:14:00,
2013-04-15 07:23:00,42.0,38.0,29.86,SE,126,0.0,2.0,87,0.00,,,0.18,,2013-04-15 12:23:00,
2013-04-15 07:33:00,42.0,38.0,29.87,SE,126,0.0,0.0,87,0.01,,,0.19,,2013-04-15 12:33:00,
2013-04-15 07:43:00,42.0,38.0,29.87,SE,126,0.0,0.0,87,0.01,,,0.19,,2013-04-15 12:43:00,
2013-04-15 07:52:00,43.0,39.0,29.87,SE,126,0.0,3.0,85,0.01,,,0.19,,2013-04-15 12:52:00,
2013-04-15 08:04:00,43.0,38.0,29.88,SE,128,0.0,2.0,84,0.01,,,0.19,,2013-04-15 13:04:00,
2013-04-15 08:12:00,43.0,38.0,29.88,SE,128,0.0,2.0,84,0.01,,,0.19,,2013-04-15 13:12:00,
2013-04-15 08:23:00,43.0,38.0,29.88,SE,128,0.0,0.0,84,0.01,,,0.19,,2013-04-15 13:23:00,
2013-04-15 08:33:00,43.0,38.0,29.88,SE,128,0.0,0.0,82,0.00,,,0.19,,2013-04-15 13:33:00,
2013-04-15 08:43:00,43.0,38.0,29.88,SE,128,0.0,0.0,82,0.00,,,0.19,,2013-04-15 13:43:00,
2013-04-15 08:53:00,43.0,38.0,29.88,SE,128,0.0,0.0,83,0.00,,,0.19,,2013-04-15 13:53:00,
2013-04-15 09:05:00,44.0,39.0,29.89,SE,128,0.0,0.0,83,0.00,,,0.19,,2013-04-15 14:05:00,
2013-04-15 09:13:00,44.0,39.0,29.89,SE,128,0.0,0.0,83,0.00,,,0.19,,2013-04-15 14:13:00,
2013-04-15 09:22:00,44.0,39.0,29.89,SE,128,0.0,0.0,82,0.00,,,0.19,,2013-04-15 14:22:00,
2013-04-15 09:33:00,44.0,39.0,29.90,NNE,32,0.0,4.0,81,0.00,,,0.19,,2013-04-15 14:33:00,
2013-04-15 09:44:00,44.0,39.0,29.90,NNE,32,0.0,4.0,81,0.00,,,0.19,,2013-04-15 14:44:00,
2013-04-15 10:03:00,45.0,40.0,29.90,NNE,32,0.0,0.0,81,0.00,,,0.19,,2013-04-15 15:03:00,
2013-04-15 10:13:00,45.0,40.0,29.90,NNE,32,0.0,0.0,81,0.00,,,0.19,,2013-04-15 15:13:00,
2013-04-15 10:23:00,45.0,39.0,29.91,NNE,32,0.0,0.0,80,0.00,,,0.19,,2013-04-15 15:23:00,
2013-04-15 10:35:00,46.0,40.0,29.91,NNE,32,0.0,1.0,79,0.00,,,0.19,,2013-04-15 15:35:00,
2013-04-15 10:44:00,46.0,40.0,29.91,NNE,32,0.0,1.0,79,0.00,,,0.19,,2013-04-15 15:44:00,
2013-04-15 10:53:00,46.0,40.0,29.91,NNE,32,0.0,0.0,78,0.00,,,0.19,,2013-04-15 15:53:00,
2013-04-15 11:04:00,46.0,39.0,29.92,NNE,32,0.0,0.0,77,0.00,,,0.19,,2013-04-15 16:04:00,
2013-04-15 11:13:00,46.0,39.0,29.92,NNE,32,0.0,0.0,77,0.00,,,0.19,,2013-04-15 16:13:00,
2013-04-15 11:24:00,47.0,39.0,29.92,NNE,32,0.0,3.0,75,0.00,,,0.19,,2013-04-15 16:24:00,
2013-04-15 11:33:00,47.0,39.0,29.92,NNE,25,0.0,4.0,73,0.00,,,0.19,,2013-04-15 16:33:00,
2013-04-15 11:44:00,47.0,39.0,29.92,NNE,25,0.0,4.0,73,0.00,,,0.19,,2013-04-15 16:44:00,
2013-04-15 11:53:00,47.0,38.0,29.92,NNE,24,0.0,4.0,70,0.00,,,0.19,,2013-04-15 16:53:00,
2013-04-15 12:03:00,47.0,37.0,29.92,NNE,24,1.0,7.0,68,0.00,,,0.19,,2013-04-15 17:03:00,
2013-04-15 12:15:00,47.0,37.0,29.92,NNE,24,1.0,7.0,68,0.00,,,0.19,,2013-04-15 17:15:00,
2013-04-15 12:22:00,47.0,37.0,29.92,NNE,24,1.0,7.0,68,0.00,,,0.19,,2013-04-15 17:22:00,
2013-04-15 12:33:00,48.0,37.0,29.93,NNW,328,2.0,8.0,65,0.00,,,0.19,,2013-04-15 17:33:00,
2013-04-15 12:43:00,48.0,37.0,29.93,NNW,328,2.0,8.0,65,0.00,,,0.19,,2013-04-15 17:43:00,
2013-04-15 12:53:00,47.0,33.0,29.93,North,5,1.0,8.0,59,0.00,,,0.19,,2013-04-15 17:53:00,
2013-04-15 13:03:00,47.0,34.0,29.93,NNW,331,3.0,8.0,61,0.00,,,0.19,,2013-04-15 18:03:00,
2013-04-15 13:12:00,47.0,34.0,29.93,NNW,331,3.0,8.0,61,0.00,,,0.19,,2013-04-15 18:12:00,
2013-04-15 13:23:00,47.0,35.0,29.93,NW,312,0.0,10.0,62,0.00,,,0.19,,2013-04-15 18:23:00,
2013-04-15 13:32:00,47.0,35.0,29.93,NW,324,5.0,10.0,62,0.00,,,0.19,,2013-04-15 18:32:00,
2013-04-15 13:42:00,47.0,35.0,29.93,NW,324,5.0,10.0,62,0.00,,,0.19,,2013-04-15 18:42:00,
2013-04-15 13:52:00,46.0,33.0,29.93,NW,315,3.0,14.0,61,0.00,,,0.19,,2013-04-15 18:52:00,
2013-04-15 14:02:00,46.0,34.0,29.92,NNW,348,5.0,13.0,62,0.00,,,0.19,,2013-04-15 19:02:00,
2013-04-15 14:12:00,46.0,34.0,29.92,NNW,348,5.0,13.0,62,0.00,,,0.19,,2013-04-15 19:12:00,
2013-04-15 14:22:00,46.0,33.0,29.92,NNW,348,5.0,12.0,60,0.00,,,0.19,,2013-04-15 19:22:00,
2013-04-15 14:37:00,46.0,33.0,29.91,North,355,5.0,13.0,60,0.00,,,0.19,,2013-04-15 19:37:00,
2013-04-15 14:52:00,46.0,33.0,29.91,North,355,5.0,13.0,60,0.00,,,0.19,,2013-04-15 19:52:00,
2013-04-15 14:58:00,46.0,33.0,29.91,NNW,332,3.0,15.0,60,0.00,,,0.19,,2013-04-15 19:58:00,
2013-04-15 15:02:00,46.0,32.0,29.92,NNW,346,7.0,12.0,58,0.00,,,0.19,,2013-04-15 20:02:00,
2013-04-15 15:11:00,46.0,32.0,29.92,NNW,346,7.0,12.0,58,0.00,,,0.19,,2013-04-15 20:11:00,
2013-04-15 15:22:00,46.0,32.0,29.92,NW,310,3.0,11.0,59,0.00,,,0.19,,2013-04-15 20:22:00,
2013-04-15 15:32:00,46.0,32.0,29.91,North,355,6.0,12.0,58,0.00,,,0.19,,2013-04-15 20:32:00,
2013-04-15 15:42:00,46.0,32.0,29.91,North,355,6.0,12.0,58,0.00,,,0.19,,2013-04-15 20:42:00,
2013-04-15 15:52:00,46.0,32.0,29.91,NNW,338,5.0,12.0,57,0.00,,,0.19,,2013-04-15 20:52:00,
2013-04-15 16:02:00,46.0,32.0,29.91,North,360,4.0,10.0,57,0.00,,,0.19,,2013-04-15 21:02:00,
2013-04-15 16:12:00,46.0,32.0,29.91,North,360,4.0,10.0,57,0.00,,,0.19,,2013-04-15 21:12:00,
2013-04-15 16:22:00,46.0,32.0,29.91,North,5,0.0,9.0,58,0.00,,,0.19,,2013-04-15 21:22:00,
2013-04-15 16:33:00,46.0,31.0,29.91,NE,51,2.0,9.0,56,0.00,,,0.19,,2013-04-15 21:33:00,
2013-04-15 16:43:00,46.0,31.0,29.91,NE,51,2.0,9.0,56,0.00,,,0.19,,2013-04-15 21:43:00,
2013-04-15 16:53:00,46.0,32.0,29.91,North,10,2.0,8.0,57,0.00,,,0.19,,2013-04-15 21:53:00,
2013-04-15 17:02:00,46.0,31.0,29.91,NNE,20,1.0,7.0,55,0.00,,,0.19,,2013-04-15 22:02:00,
2013-04-15 17:13:00,46.0,31.0,29.91,NNE,20,1.0,7.0,55,0.00,,,0.19,,2013-04-15 22:13:00,
2013-04-15 17:23:00,46.0,30.0,29.91,North,355,4.0,9.0,54,0.00,,,0.19,,2013-04-15 22:23:00,
2013-04-15 17:33:00,46.0,29.0,29.91,NNE,25,1.0,8.0,52,0.00,,,0.19,,2013-04-15 22:33:00,
2013-04-15 17:42:00,46.0,29.0,29.91,NNE,25,1.0,8.0,52,0.00,,,0.19,,2013-04-15 22:42:00,
2013-04-15 17:52:00,46.0,29.0,29.92,NE,42,1.0,9.0,52,0.00,,,0.19,,2013-04-15 22:52:00,
2013-04-15 18:02:00,46.0,30.0,29.92,North,5,2.0,6.0,53,0.00,,,0.19,,2013-04-15 23:02:00,
2013-04-15 18:12:00,46.0,30.0,29.92,North,5,2.0,6.0,53,0.00,,,0.19,,2013-04-15 23:12:00,
2013-04-15 18:22:00,46.0,30.0,29.93,ENE,69,1.0,8.0,54,0.00,,,0.19,,2013-04-15 23:22:00,
2013-04-15 18:32:00,46.0,30.0,29.93,North,360,2.0,11.0,54,0.00,,,0.19,,2013-04-15 23:32:00,
2013-04-15 18:42:00,46.0,30.0,29.93,North,360,2.0,11.0,54,0.00,,,0.19,,2013-04-15 23:42:00,
2013-04-15 18:52:00,46.0,30.0,29.93,North,9,2.0,9.0,54,0.00,,,0.19,,2013-04-15 23:52:00,
2013-04-15 19:02:00,46.0,31.0,29.94,NNE,14,2.0,11.0,55,0.00,,,0.19,,2013-04-16 00:02:00,
2013-04-15 19:12:00,46.0,31.0,29.94,NNE,14,2.0,11.0,55,0.00,,,0.19,,2013-04-16 00:12:00,
2013-04-15 19:22:00,46.0,31.0,29.94,NNE,21,2.0,6.0,55,0.00,,,0.19,,2013-04-16 00:22:00,
2013-04-15 19:32:00,46.0,30.0,29.94,NNE,13,3.0,10.0,54,0.00,,,0.19,,2013-04-16 00:32:00,
2013-04-15 19:42:00,46.0,30.0,29.94,NNE,13,3.0,10.0,54,0.00,,,0.19,,2013-04-16 00:42:00,
2013-04-15 19:52:00,46.0,31.0,29.95,ENE,60,3.0,11.0,55,0.00,,,0.19,,2013-04-16 00:52:00,
2013-04-15 20:02:00,46.0,31.0,29.96,NE,37,1.0,9.0,55,0.00,,,0.19,,2013-04-16 01:02:00,
2013-04-15 20:12:00,46.0,31.0,29.96,NE,37,1.0,9.0,55,0.00,,,0.19,,2013-04-16 01:12:00,
2013-04-15 20:22:00,46.0,31.0,29.96,NNE,15,3.0,11.0,55,0.00,,,0.19,,2013-04-16 01:22:00,
2013-04-15 20:32:00,46.0,30.0,29.97,NNE,19,3.0,13.0,54,0.00,,,0.17,,2013-04-16 01:32:00,
2013-04-15 20:42:00,46.0,30.0,29.97,NNE,19,3.0,13.0,54,0.00,,,0.17,,2013-04-16 01:42:00,
2013-04-15 20:52:00,46.0,31.0,29.98,North,5,2.0,11.0,55,0.00,,,0.17,,2013-04-16 01:52:00,
2013-04-15 21:02:00,46.0,31.0,29.99,North,355,0.0,7.0,56,0.00,,,0.17,,2013-04-16 02:02:00,
2013-04-15 21:12:00,46.0,31.0,29.99,North,355,0.0,7.0,56,0.00,,,0.17,,2013-04-16 02:12:00,
2013-04-15 21:22:00,46.0,32.0,30.00,NNE,33,1.0,9.0,57,0.00,,,0.17,,2013-04-16 02:22:00,
2013-04-15 21:32:00,46.0,33.0,30.01,North,349,3.0,9.0,61,0.00,,,0.17,,2013-04-16 02:32:00,
2013-04-15 21:42:00,46.0,33.0,30.01,North,349,3.0,9.0,61,0.00,,,0.17,,2013-04-16 02:42:00,
2013-04-15 21:52:00,45.0,33.0,30.02,North,355,2.0,9.0,62,0.00,,,0.17,,2013-04-16 02:52:00,
2013-04-15 22:02:00,45.0,33.0,30.04,NW,321,2.0,12.0,63,0.00,,,0.17,,2013-04-16 03:02:00,
2013-04-15 22:12:00,45.0,33.0,30.04,NW,321,2.0,12.0,63,0.00,,,0.17,,2013-04-16 03:12:00,
2013-04-15 22:22:00,45.0,33.0,30.04,NNE,27,4.0,11.0,62,0.00,,,0.17,,2013-04-16 03:22:00,
2013-04-15 22:33:00,44.0,32.0,30.05,ENE,68,2.0,10.0,62,0.00,,,0.17,,2013-04-16 03:33:00,
2013-04-15 22:43:00,44.0,32.0,30.05,ENE,68,2.0,10.0,62,0.00,,,0.17,,2013-04-16 03:43:00,
2013-04-15 22:52:00,44.0,31.0,30.05,NE,44,3.0,14.0,59,0.00,,,0.17,,2013-04-16 03:52:00,
2013-04-15 23:03:00,44.0,31.0,30.05,NNE,25,4.0,13.0,61,0.00,,,0.17,,2013-04-16 04:03:00,
2013-04-15 23:12:00,44.0,31.0,30.05,NNE,25,4.0,13.0,61,0.00,,,0.17,,2013-04-16 04:12:00,
2013-04-15 23:23:00,43.0,31.0,30.06,NNE,15,0.0,11.0,63,0.00,,,0.17,,2013-04-16 04:23:00,
2013-04-15 23:33:00,43.0,32.0,30.04,North,355,1.0,9.0,64,0.00,,,0.17,,2013-04-16 04:33:00,
2013-04-15 23:42:00,43.0,32.0,30.04,North,355,1.0,9.0,64,0.00,,,0.17,,2013-04-16 04:42:00,
2013-04-15 23:52:00,43.0,32.0,30.04,NNW,337,1.0,12.0,64,0.00,,,0.17,,2013-04-16 04:52:00,